Hamlet, Illinois
Current Conditions -  °F | °C
As of 1:52 PM on Monday 24 Nov 2014 (Local Time) from KMLI Reporting Station
Moderate Snow Moderate Snow  
Wind Chill: 12°   Ceiling: 1300
Heat Index: 27°   Visibility: 0.5mi
Dew Point: 23°   Wind: 26mph
Humidity: 85%   Direction: 270°W
Pressure: 29.57"   Gusts: 38mph
Location:  41.1928°N, 90.7165°W
Report Text: KMLI 241952Z 27023G33KT 1/2SM R09/3500V5500FT SN FZFG BKN013 OVC017 M03/M05 A2957 RMK AO2 PK WND 27035/1900 UPE12SNB13 SLP017 P0001 I1000 T10281050
Loading
Personal Weather Stations






























Interactive Weather Map New forecast layout! Learn more

10-Day Weather Forecast

Advertisements
Track Severe Weather on mobile